createdAt,value
2018-12-12T00:01:45.562Z,102146.84
2018-12-12T00:04:18.363Z,102148.08
2018-12-12T00:06:44.198Z,102152.69
2018-12-12T00:09:10.141Z,102152.33
2018-12-12T00:11:35.958Z,102164.58
2018-12-12T00:14:01.898Z,102156.94
2018-12-12T00:16:27.612Z,102157.44
2018-12-12T00:18:53.415Z,102165.31
2018-12-12T00:21:19.215Z,102165.92
2018-12-12T00:23:45.054Z,102170.53
2018-12-12T00:26:10.784Z,102170.28
2018-12-12T00:28:36.502Z,102164.94
2018-12-12T00:31:02.369Z,102160.43
2018-12-12T00:33:28.119Z,102166.88
2018-12-12T00:35:53.843Z,102167.84
2018-12-12T00:38:19.553Z,102167.84
2018-12-12T00:40:45.274Z,102172.59
2018-12-12T00:43:10.999Z,102173.19
2018-12-12T00:45:36.750Z,102172.72
2018-12-12T00:48:02.594Z,102178.89
2018-12-12T00:50:35.183Z,102181.94
2018-12-12T00:53:01.038Z,102182.30
2018-12-12T00:55:26.902Z,102180.60
2018-12-12T00:57:52.744Z,102184.61
2018-12-12T01:00:18.475Z,102184.00
2018-12-12T01:02:44.415Z,102195.89
2018-12-12T01:05:10.150Z,102201.73
2018-12-12T01:07:35.864Z,102203.91
2018-12-12T01:10:01.799Z,102204.51
2018-12-12T01:12:27.525Z,102204.14
2018-12-12T01:14:53.286Z,102194.19
2018-12-12T01:17:18.995Z,102200.03
2018-12-12T01:19:44.742Z,102203.17
2018-12-12T01:22:10.473Z,102207.55
2018-12-12T01:24:36.205Z,102216.67
2018-12-12T01:27:01.977Z,102213.16
2018-12-12T01:29:33.629Z,102215.34
2018-12-12T01:31:59.683Z,102217.27
2018-12-12T01:34:25.514Z,102210.72
2018-12-12T01:36:51.947Z,102214.97
2018-12-12T01:39:17.682Z,102222.23
2018-12-12T01:41:43.413Z,102217.49
2018-12-12T01:44:09.242Z,102217.16
2018-12-12T01:46:34.983Z,102212.78
2018-12-12T01:49:00.718Z,102216.88
2018-12-12T01:51:26.474Z,102221.02
2018-12-12T01:53:52.190Z,102218.34
2018-12-12T01:56:17.954Z,102222.72
2018-12-12T01:58:43.699Z,102224.06
2018-12-12T02:01:09.421Z,102222.35
2018-12-12T02:03:35.149Z,102219.19
2018-12-12T02:06:00.868Z,102224.43
2018-12-12T02:08:26.729Z,102223.69
2018-12-12T02:10:53.166Z,102227.55
2018-12-12T02:13:27.099Z,102230.22
2018-12-12T02:15:52.956Z,102223.92
2018-12-12T02:18:18.706Z,102230.84
2018-12-12T02:20:44.466Z,102230.00
2018-12-12T02:23:10.213Z,102232.08
2018-12-12T02:25:36.043Z,102232.30
2018-12-12T02:28:01.781Z,102230.97
2018-12-12T02:30:27.539Z,102229.26
2018-12-12T02:32:53.275Z,102237.87
2018-12-12T02:35:19.113Z,102235.45
2018-12-12T02:37:44.973Z,102234.12
2018-12-12T02:40:10.728Z,102240.30
2018-12-12T02:42:36.498Z,102235.92
2018-12-12T02:45:02.536Z,102240.80
2018-12-12T02:47:28.260Z,102243.69
2018-12-12T02:49:53.990Z,102240.05
2018-12-12T02:52:19.844Z,102241.14
2018-12-12T02:54:45.678Z,102240.80
2018-12-12T02:57:11.402Z,102248.81
2018-12-12T02:59:37.223Z,102249.52
2018-12-12T03:02:03.067Z,102254.48
2018-12-12T03:04:35.925Z,102250.39
2018-12-12T03:07:01.656Z,102251.81
2018-12-12T03:09:27.498Z,102249.41
2018-12-12T03:11:53.218Z,102255.95
2018-12-12T03:14:18.931Z,102257.05
2018-12-12T03:16:44.774Z,102264.84
2018-12-12T03:19:10.490Z,102256.55
2018-12-12T03:21:36.246Z,102260.45
2018-12-12T03:24:02.170Z,102264.47
2018-12-12T03:26:28.021Z,102262.16
2018-12-12T03:28:53.736Z,102258.99
2018-12-12T03:31:19.595Z,102260.20
2018-12-12T03:33:45.430Z,102261.17
2018-12-12T03:36:11.156Z,102268.23
2018-12-12T03:38:36.869Z,102264.70
2018-12-12T03:41:02.678Z,102267.25
2018-12-12T03:43:28.416Z,102262.41
2018-12-12T03:45:54.156Z,102264.58
2018-12-12T03:48:21.099Z,102270.20
2018-12-12T03:50:46.926Z,102279.05
2018-12-12T03:53:12.671Z,102272.96
2018-12-12T03:55:38.418Z,102271.53
2018-12-12T03:58:04.248Z,102272.74
2018-12-12T04:00:30.085Z,102268.23
2018-12-12T04:02:55.824Z,102267.40
2018-12-12T04:05:21.569Z,102270.53
2018-12-12T04:07:47.298Z,102270.81
2018-12-12T04:10:13.101Z,102282.56
2018-12-12T04:12:38.833Z,102277.48
2018-12-12T04:15:04.649Z,102278.45
2018-12-12T04:17:30.506Z,102274.91
2018-12-12T04:19:56.331Z,102275.88
2018-12-12T04:22:22.193Z,102277.48
2018-12-12T04:24:48.409Z,102279.44
2018-12-12T04:27:14.126Z,102283.22
2018-12-12T04:29:39.852Z,102276.41
2018-12-12T04:32:05.587Z,102275.67
2018-12-12T04:34:31.302Z,102273.00
2018-12-12T04:36:57.130Z,102272.41
2018-12-12T04:39:22.849Z,102275.81
2018-12-12T04:41:48.571Z,102276.06
2018-12-12T04:44:14.394Z,102279.10
2018-12-12T04:46:40.211Z,102277.05
2018-12-12T04:49:06.042Z,102283.38
2018-12-12T04:51:31.745Z,102284.59
2018-12-12T04:53:57.458Z,102281.05
2018-12-12T04:56:23.472Z,102287.87
2018-12-12T04:58:49.183Z,102280.09
2018-12-12T05:01:14.891Z,102284.02
2018-12-12T05:03:40.607Z,102284.27
2018-12-12T05:06:06.330Z,102281.82
2018-12-12T05:08:32.051Z,102288.98
2018-12-12T05:10:57.851Z,102290.56
2018-12-12T05:13:23.562Z,102294.33
2018-12-12T05:15:49.257Z,102295.67
2018-12-12T05:18:14.978Z,102304.65
2018-12-12T05:20:40.695Z,102303.09
2018-12-12T05:23:06.408Z,102309.27
2018-12-12T05:25:32.125Z,102315.11
2018-12-12T05:27:57.947Z,102313.88
2018-12-12T05:30:23.662Z,102319.50
2018-12-12T05:32:49.475Z,102323.50
2018-12-12T05:35:15.401Z,102329.45
2018-12-12T05:37:41.121Z,102326.64
2018-12-12T05:40:07.458Z,102332.86
2018-12-12T05:42:33.396Z,102327.88
2018-12-12T05:44:59.113Z,102334.31
2018-12-12T05:47:24.929Z,102338.91
2018-12-12T05:49:50.762Z,102335.78
2018-12-12T05:52:16.565Z,102343.80
2018-12-12T05:54:42.285Z,102336.87
2018-12-12T05:57:08.020Z,102342.59
2018-12-12T05:59:33.785Z,102330.17
2018-12-12T06:01:59.631Z,102342.33
2018-12-12T06:04:25.349Z,102342.97
2018-12-12T06:06:51.178Z,102344.31
2018-12-12T06:09:16.923Z,102352.94
2018-12-12T06:11:42.740Z,102362.07
2018-12-12T06:14:08.462Z,102356.47
2018-12-12T06:16:34.181Z,102356.23
2018-12-12T06:18:59.930Z,102360.22
2018-12-12T06:21:25.639Z,102362.39
2018-12-12T06:23:51.367Z,102364.70
2018-12-12T06:26:17.084Z,102368.00
2018-12-12T06:28:42.797Z,102374.05
2018-12-12T06:31:08.498Z,102370.91
2018-12-12T06:33:34.236Z,102377.59
2018-12-12T06:36:00.058Z,102379.67
2018-12-12T06:38:25.887Z,102379.77
2018-12-12T06:40:51.871Z,102381.02
2018-12-12T06:43:17.592Z,102381.84
2018-12-12T06:45:43.423Z,102379.67
2018-12-12T06:48:09.128Z,102380.73
2018-12-12T06:50:34.839Z,102388.88
2018-12-12T06:53:00.538Z,102389.37
2018-12-12T06:55:26.254Z,102389.25
2018-12-12T06:57:51.954Z,102394.23
2018-12-12T07:00:17.674Z,102396.06
2018-12-12T07:02:43.390Z,102396.44
2018-12-12T07:05:09.219Z,102400.44
2018-12-12T07:07:35.039Z,102404.10
2018-12-12T07:10:00.755Z,102402.17
2018-12-12T07:12:26.458Z,102404.47
2018-12-12T07:14:52.178Z,102396.33
2018-12-12T07:17:17.882Z,102407.02
2018-12-12T07:19:43.605Z,102403.83
2018-12-12T07:22:09.419Z,102411.97
2018-12-12T07:24:35.125Z,102407.59
2018-12-12T07:27:00.842Z,102406.41
2018-12-12T07:29:26.566Z,102414.05
2018-12-12T07:31:52.274Z,102413.68
2018-12-12T07:34:18.210Z,102414.42
2018-12-12T07:36:43.912Z,102418.45
2018-12-12T07:39:09.646Z,102426.23
2018-12-12T07:41:35.567Z,102428.16
2018-12-12T07:44:01.791Z,102429.50
2018-12-12T07:46:27.623Z,102428.91
2018-12-12T07:48:53.425Z,102430.73
2018-12-12T07:51:19.146Z,102434.15
2018-12-12T07:53:44.862Z,102434.50
2018-12-12T07:56:10.682Z,102442.02
2018-12-12T07:58:36.403Z,102442.39
2018-12-12T08:01:02.710Z,102442.91
2018-12-12T08:03:28.845Z,102447.89
2018-12-12T08:05:54.566Z,102438.62
2018-12-12T08:08:20.274Z,102438.75
2018-12-12T08:10:46.102Z,102441.67
2018-12-12T08:13:11.909Z,102441.67
2018-12-12T08:15:37.636Z,102445.83
2018-12-12T08:18:03.834Z,102444.03
2018-12-12T08:20:29.769Z,102447.67
2018-12-12T08:22:56.391Z,102451.05
2018-12-12T08:25:22.426Z,102452.89
2018-12-12T08:27:48.133Z,102453.86
2018-12-12T08:30:13.855Z,102455.06
2018-12-12T08:32:39.668Z,102456.16
2018-12-12T08:35:05.719Z,102457.64
2018-12-12T08:37:31.442Z,102459.20
2018-12-12T08:39:57.150Z,102460.78
2018-12-12T08:42:22.886Z,102461.04
2018-12-12T08:44:48.625Z,102458.23
2018-12-12T08:47:14.451Z,102465.05
2018-12-12T08:49:40.166Z,102464.30
2018-12-12T08:52:06.293Z,102464.67
2018-12-12T08:54:32.001Z,102465.52
2018-12-12T08:56:57.870Z,102468.09
2018-12-12T08:59:23.762Z,102469.06
2018-12-12T09:01:49.583Z,102473.44
2018-12-12T09:04:15.303Z,102469.77
2018-12-12T09:06:41.141Z,102476.95
2018-12-12T09:09:06.873Z,102485.81
2018-12-12T09:11:32.807Z,102486.21
2018-12-12T09:13:58.519Z,102484.16
2018-12-12T09:16:24.245Z,102484.56
2018-12-12T09:18:49.958Z,102488.31
2018-12-12T09:21:15.679Z,102491.48
2018-12-12T09:23:41.410Z,102488.30
2018-12-12T09:26:07.139Z,102483.44
2018-12-12T09:28:32.860Z,102486.73
2018-12-12T09:30:58.601Z,102484.67
2018-12-12T09:33:31.380Z,102491.14
2018-12-12T09:35:57.110Z,102490.17
2018-12-12T09:38:22.819Z,102491.88
2018-12-12T09:40:48.655Z,102492.11
2018-12-12T09:43:14.365Z,102496.12
2018-12-12T09:45:40.091Z,102502.73
2018-12-12T09:48:05.850Z,102503.34
2018-12-12T09:50:31.726Z,102505.42
2018-12-12T09:52:57.429Z,102513.84
2018-12-12T09:55:23.238Z,102513.10
2018-12-12T09:57:48.956Z,102516.98
2018-12-12T10:00:14.771Z,102519.56
2018-12-12T10:02:40.590Z,102519.42
2018-12-12T10:05:06.418Z,102516.38
2018-12-12T10:07:32.133Z,102516.89
2018-12-12T10:09:57.947Z,102521.87
2018-12-12T10:12:23.786Z,102521.61
2018-12-12T10:14:49.594Z,102525.89
2018-12-12T10:17:15.310Z,102527.81
2018-12-12T10:19:41.018Z,102530.50
2018-12-12T10:22:06.847Z,102531.70
2018-12-12T10:24:32.874Z,102529.77
2018-12-12T10:26:58.594Z,102526.26
2018-12-12T10:29:24.402Z,102530.27
2018-12-12T10:31:50.125Z,102528.56
2018-12-12T10:34:15.945Z,102527.31
2018-12-12T10:36:41.765Z,102523.45
2018-12-12T10:39:07.803Z,102520.16
2018-12-12T10:41:33.521Z,102521.87
2018-12-12T10:43:59.268Z,102522.95
2018-12-12T10:46:25.079Z,102526.02
2018-12-12T10:48:51.072Z,102526.77
2018-12-12T10:51:16.789Z,102519.83
2018-12-12T10:53:42.519Z,102524.09
2018-12-12T10:56:08.346Z,102523.12
2018-12-12T10:58:34.181Z,102525.44
2018-12-12T11:01:06.035Z,102525.34
2018-12-12T11:03:32.266Z,102517.41
2018-12-12T11:05:57.978Z,102525.80
2018-12-12T11:08:23.702Z,102519.61
2018-12-12T11:10:49.429Z,102521.53
2018-12-12T11:13:15.170Z,102524.94
2018-12-12T11:15:40.890Z,102522.88
2018-12-12T11:18:06.618Z,102526.00
2018-12-12T11:20:32.338Z,102522.48
2018-12-12T11:22:58.059Z,102523.70
2018-12-12T11:25:23.883Z,102523.94
2018-12-12T11:27:49.703Z,102529.29
2018-12-12T11:30:15.434Z,102531.50
2018-12-12T11:32:41.148Z,102528.83
2018-12-12T11:35:06.886Z,102529.27
2018-12-12T11:37:32.615Z,102526.73
2018-12-12T11:39:58.350Z,102527.94
2018-12-12T11:42:24.078Z,102529.56
2018-12-12T11:44:49.798Z,102526.62
2018-12-12T11:47:15.628Z,102523.36
2018-12-12T11:49:41.446Z,102524.68
2018-12-12T11:52:07.277Z,102525.63
2018-12-12T11:54:33.104Z,102524.77
2018-12-12T11:56:59.327Z,102518.52
2018-12-12T11:59:25.078Z,102516.11
2018-12-12T12:01:50.802Z,102516.80
2018-12-12T12:04:16.537Z,102519.00
2018-12-12T12:06:42.254Z,102521.66
2018-12-12T12:09:08.123Z,102517.14
2018-12-12T12:11:33.849Z,102520.91
2018-12-12T12:13:59.562Z,102521.50
2018-12-12T12:16:32.406Z,102521.03
2018-12-12T12:18:58.130Z,102525.54
2018-12-12T12:21:23.855Z,102522.17
2018-12-12T12:23:49.574Z,102527.22
2018-12-12T12:26:15.696Z,102524.03
2018-12-12T12:28:41.478Z,102524.99
2018-12-12T12:31:07.328Z,102523.41
2018-12-12T12:33:33.160Z,102524.36
2018-12-12T12:35:58.894Z,102526.11
2018-12-12T12:38:24.630Z,102531.05
2018-12-12T12:40:50.359Z,102532.27
2018-12-12T12:43:16.216Z,102533.95
2018-12-12T12:45:41.963Z,102532.33
2018-12-12T12:48:07.682Z,102539.16
2018-12-12T12:50:33.430Z,102541.13
2018-12-12T12:52:59.146Z,102538.78
2018-12-12T12:55:24.887Z,102541.72
2018-12-12T12:57:50.631Z,102536.23
2018-12-12T13:00:16.554Z,102539.66
2018-12-12T13:02:42.304Z,102536.45
2018-12-12T13:05:08.124Z,102533.30
2018-12-12T13:07:33.868Z,102535.81
2018-12-12T13:09:59.607Z,102535.56
2018-12-12T13:12:25.347Z,102533.48
2018-12-12T13:14:51.113Z,102535.41
2018-12-12T13:17:16.860Z,102539.45
2018-12-12T13:19:42.589Z,102539.58
2018-12-12T13:22:08.331Z,102536.75
2018-12-12T13:24:34.063Z,102539.95
2018-12-12T13:26:59.896Z,102534.00
2018-12-12T13:29:25.723Z,102529.88
2018-12-12T13:31:51.468Z,102525.77
2018-12-12T13:34:17.291Z,102532.72
2018-12-12T13:36:43.051Z,102535.03
2018-12-12T13:39:08.882Z,102534.31
2018-12-12T13:41:34.708Z,102532.38
2018-12-12T13:44:00.447Z,102531.78
2018-12-12T13:46:26.188Z,102529.58
2018-12-12T13:48:52.028Z,102527.64
2018-12-12T13:51:17.771Z,102533.39
2018-12-12T13:53:43.637Z,102534.83
2018-12-12T13:56:09.551Z,102539.09
2018-12-12T13:58:35.407Z,102539.81
2018-12-12T14:01:01.135Z,102540.52
2018-12-12T14:03:26.972Z,102537.83
2018-12-12T14:05:52.690Z,102540.62
2018-12-12T14:08:18.415Z,102544.14
2018-12-12T14:10:44.136Z,102535.59
2018-12-12T14:13:09.875Z,102543.14
2018-12-12T14:15:35.698Z,102537.89
2018-12-12T14:18:01.423Z,102540.04
2018-12-12T14:20:27.139Z,102532.39
2018-12-12T14:22:52.847Z,102539.08
2018-12-12T14:25:18.576Z,102533.23
2018-12-12T14:27:44.302Z,102527.14
2018-12-12T14:30:10.067Z,102529.44
2018-12-12T14:32:35.915Z,102535.75
2018-12-12T14:35:01.860Z,102531.45
2018-12-12T14:37:27.674Z,102533.76
2018-12-12T14:39:53.395Z,102532.02
2018-12-12T14:42:19.119Z,102529.22
2018-12-12T14:44:44.950Z,102523.28
2018-12-12T14:47:10.676Z,102530.64
2018-12-12T14:49:36.402Z,102531.60
2018-12-12T14:52:02.234Z,102536.58
2018-12-12T14:54:28.071Z,102535.83
2018-12-12T14:56:54.491Z,102531.94
2018-12-12T14:59:20.250Z,102536.58
2018-12-12T15:01:46.064Z,102533.48
2018-12-12T15:04:11.810Z,102529.58
2018-12-12T15:06:37.530Z,102529.07
2018-12-12T15:09:05.575Z,102530.88
2018-12-12T15:11:31.314Z,102534.41
2018-12-12T15:13:57.038Z,102535.21
2018-12-12T15:16:22.863Z,102543.39
2018-12-12T15:18:48.588Z,102541.72
2018-12-12T15:21:14.432Z,102545.41
2018-12-12T15:23:40.252Z,102541.89
2018-12-12T15:26:06.095Z,102541.55
2018-12-12T15:28:31.812Z,102544.48
2018-12-12T15:30:57.646Z,102542.13
2018-12-12T15:33:23.359Z,102540.95
2018-12-12T15:35:49.095Z,102544.30
2018-12-12T15:38:14.815Z,102540.82
2018-12-12T15:40:40.551Z,102545.14
2018-12-12T15:43:06.389Z,102543.82
2018-12-12T15:45:32.125Z,102543.03
2018-12-12T15:47:57.959Z,102548.19
2018-12-12T15:50:24.878Z,102550.29
2018-12-12T15:52:51.267Z,102541.38
2018-12-12T15:55:18.074Z,102547.30
2018-12-12T15:57:45.979Z,102547.52
2018-12-12T16:00:16.678Z,102546.69
2018-12-12T16:02:43.790Z,102540.89
2018-12-12T16:05:11.020Z,102552.32
2018-12-12T16:07:36.779Z,102556.70
2018-12-12T16:10:04.703Z,102552.51
2018-12-12T16:12:30.818Z,102554.83
2018-12-12T16:14:56.688Z,102553.11
2018-12-12T16:17:25.525Z,102549.30
2018-12-12T16:19:58.401Z,102553.49
2018-12-12T16:22:24.237Z,102554.42
2018-12-12T16:24:50.078Z,102554.22
2018-12-12T16:27:16.295Z,102556.23
2018-12-12T16:29:43.200Z,102558.83
2018-12-12T16:32:09.056Z,102559.86
2018-12-12T16:34:34.920Z,102557.65
2018-12-12T16:37:01.317Z,102568.13
2018-12-12T16:39:27.251Z,102566.27
2018-12-12T16:41:53.526Z,102563.21
2018-12-12T16:44:19.423Z,102562.14
2018-12-12T16:46:45.354Z,102559.23
2018-12-12T16:49:11.195Z,102556.70
2018-12-12T16:51:37.057Z,102554.67
2018-12-12T16:54:03.993Z,102563.77
2018-12-12T16:56:29.847Z,102551.99
2018-12-12T16:58:56.510Z,102562.97
2018-12-12T17:01:22.511Z,102474.91
2018-12-12T17:03:48.380Z,102564.19
2018-12-12T17:06:14.285Z,102555.94
2018-12-12T17:08:40.317Z,102556.25
2018-12-12T17:11:06.914Z,102556.95
2018-12-12T17:13:32.770Z,102556.69
2018-12-12T17:15:58.619Z,102557.95
2018-12-12T17:18:24.379Z,102558.41
2018-12-12T17:20:50.219Z,102558.34
2018-12-12T17:23:16.039Z,102560.62
2018-12-12T17:25:41.794Z,102562.56
2018-12-12T17:28:07.746Z,102563.52
2018-12-12T17:30:35.476Z,102558.57
2018-12-12T17:33:01.330Z,102563.44
2018-12-12T17:35:27.269Z,102565.95
2018-12-12T17:37:53.537Z,102568.42
2018-12-12T17:40:19.307Z,102571.09
2018-12-12T17:42:45.320Z,102567.28
2018-12-12T17:45:11.161Z,102569.08
2018-12-12T17:47:36.986Z,102562.06
2018-12-12T17:50:04.212Z,102561.87
2018-12-12T17:52:30.038Z,102570.44
2018-12-12T17:54:55.754Z,102566.63
2018-12-12T17:57:21.567Z,102573.39
2018-12-12T17:59:47.298Z,102574.53
2018-12-12T18:02:13.226Z,102569.20
2018-12-12T18:04:38.946Z,102574.75
2018-12-12T18:07:04.759Z,102575.02
2018-12-12T18:09:30.486Z,102573.11
2018-12-12T18:11:56.294Z,102579.88
2018-12-12T18:17:05.591Z,102566.65
2018-12-12T18:19:31.376Z,102578.84
2018-12-12T18:21:57.189Z,102570.16
2018-12-12T18:24:22.918Z,102568.83
2018-12-12T18:26:55.693Z,102565.87
2018-12-12T18:29:21.428Z,102565.95
2018-12-12T18:31:47.140Z,102568.61
2018-12-12T18:34:12.983Z,102566.03
2018-12-12T18:36:38.798Z,102561.19
2018-12-12T18:39:05.463Z,102550.22
2018-12-12T18:41:31.192Z,102555.63
2018-12-12T18:43:57.033Z,102554.87
2018-12-12T18:46:22.757Z,102554.34
2018-12-12T18:48:48.550Z,102554.91
2018-12-12T18:51:14.267Z,102558.33
2018-12-12T18:53:39.994Z,102561.91
2018-12-12T18:56:05.752Z,102570.86
2018-12-12T18:58:31.482Z,102572.87
2018-12-12T19:00:57.226Z,102570.28
2018-12-12T19:03:23.075Z,102562.92
2018-12-12T19:05:48.821Z,102569.73
2018-12-12T19:08:14.594Z,102563.50
2018-12-12T19:10:40.330Z,102563.25
2018-12-12T19:13:06.727Z,102564.94
2018-12-12T19:15:34.755Z,102561.19
2018-12-12T19:18:00.872Z,102570.10
2018-12-12T19:20:27.102Z,102572.57
2018-12-12T19:22:53.330Z,102574.54
2018-12-12T19:25:19.201Z,102573.33
2018-12-12T19:27:44.935Z,102577.39
2018-12-12T19:30:10.774Z,102573.50
2018-12-12T19:32:36.511Z,102571.20
2018-12-12T19:35:04.557Z,102575.67
2018-12-12T19:37:30.732Z,102572.80
2018-12-12T19:39:56.892Z,102574.52
2018-12-12T19:42:23.826Z,102575.47
2018-12-12T19:44:56.545Z,102576.60
2018-12-12T19:47:23.183Z,102573.35
2018-12-12T19:49:49.510Z,102574.57
2018-12-12T19:52:15.260Z,102573.98
2018-12-12T19:54:40.962Z,102578.63
2018-12-12T20:00:00.813Z,102575.09
2018-12-12T20:02:26.555Z,102575.37
2018-12-12T20:04:52.569Z,102578.63
2018-12-12T20:07:18.842Z,102570.82
2018-12-12T20:09:44.706Z,102567.48
2018-12-12T20:12:10.523Z,102569.00
2018-12-12T20:14:36.603Z,102573.90
2018-12-12T20:17:02.677Z,102561.47
2018-12-12T20:19:28.442Z,102576.89
2018-12-12T20:21:55.169Z,102571.95
2018-12-12T20:24:23.039Z,102573.21
2018-12-12T20:26:49.396Z,102573.21
2018-12-12T20:29:15.170Z,102583.77
2018-12-12T20:31:41.277Z,102589.26
2018-12-12T20:34:14.327Z,102586.33
2018-12-12T20:36:40.093Z,102588.05
2018-12-12T20:39:05.994Z,102590.52
2018-12-12T20:41:31.850Z,102597.72
2018-12-12T20:43:57.585Z,102601.15
2018-12-12T20:46:23.694Z,102598.93
2018-12-12T20:48:49.770Z,102594.73
2018-12-12T20:51:15.891Z,102592.15
2018-12-12T20:53:41.618Z,102595.20
2018-12-12T20:56:07.375Z,102595.00
2018-12-12T20:58:33.452Z,102589.84
2018-12-12T21:00:59.280Z,102595.08
2018-12-12T21:03:25.106Z,102597.62
2018-12-12T21:05:54.574Z,102597.80
2018-12-12T21:08:19.071Z,102599.52
2018-12-12T21:10:45.117Z,102596.09
2018-12-12T21:13:11.474Z,102587.64
2018-12-12T21:15:39.342Z,102597.28
2018-12-12T21:18:05.481Z,102596.14
2018-12-12T21:20:31.620Z,102590.88
2018-12-12T21:22:57.583Z,102590.49
2018-12-12T21:25:24.331Z,102588.58
2018-12-12T21:27:50.058Z,102591.14
2018-12-12T21:30:17.361Z,102590.45
2018-12-12T21:32:43.793Z,102592.91
2018-12-12T21:35:09.938Z,102591.12
2018-12-12T21:37:36.987Z,102588.72
2018-12-12T21:40:03.135Z,102590.74
2018-12-12T21:42:29.423Z,102592.08
2018-12-12T21:44:55.161Z,102591.32
2018-12-12T21:47:20.867Z,102592.78
2018-12-12T21:49:46.660Z,102590.80
2018-12-12T21:52:12.802Z,102587.88
2018-12-12T21:54:39.030Z,102585.97
2018-12-12T21:57:05.119Z,102588.53
2018-12-12T21:59:30.869Z,102584.27
2018-12-12T22:01:56.979Z,102589.98
2018-12-12T22:04:23.110Z,102591.31
2018-12-12T22:06:48.839Z,102591.58
2018-12-12T22:09:14.568Z,102591.84
2018-12-12T22:11:40.380Z,102588.98
2018-12-12T22:14:06.118Z,102589.63
2018-12-12T22:16:31.838Z,102596.02
2018-12-12T22:18:57.773Z,102588.96
2018-12-12T22:21:23.593Z,102588.98
2018-12-12T22:23:50.338Z,102585.28
2018-12-12T22:26:16.082Z,102586.05
2018-12-12T22:28:41.799Z,102586.66
2018-12-12T22:31:07.643Z,102582.67
2018-12-12T22:33:33.352Z,102588.38
2018-12-12T22:35:59.078Z,102587.44
2018-12-12T22:38:25.220Z,102588.45
2018-12-12T22:40:51.227Z,102590.06
2018-12-12T22:43:16.975Z,102587.39
2018-12-12T22:45:42.794Z,102595.39
2018-12-12T22:48:09.285Z,102594.73
2018-12-12T22:50:35.011Z,102594.42
2018-12-12T22:53:01.244Z,102593.47
2018-12-12T22:55:26.982Z,102590.05
2018-12-12T22:57:53.003Z,102594.62
2018-12-12T23:00:25.107Z,102590.42
2018-12-12T23:02:50.820Z,102591.76
2018-12-12T23:05:16.646Z,102592.22
2018-12-12T23:07:43.222Z,102586.74
2018-12-12T23:10:09.056Z,102585.84
2018-12-12T23:12:34.766Z,102587.67
2018-12-12T23:15:00.471Z,102586.94
2018-12-12T23:17:26.379Z,102590.09
2018-12-12T23:19:52.905Z,102589.61
2018-12-12T23:22:18.629Z,102591.12
2018-12-12T23:24:44.338Z,102588.00
2018-12-12T23:27:10.060Z,102590.56
2018-12-12T23:29:35.765Z,102581.50
2018-12-12T23:32:01.474Z,102585.08
2018-12-12T23:34:27.280Z,102585.00
2018-12-12T23:36:53.099Z,102578.06
2018-12-12T23:39:18.807Z,102581.19
2018-12-12T23:41:44.523Z,102577.95
2018-12-12T23:44:10.256Z,102574.59
2018-12-12T23:46:35.983Z,102566.71
2018-12-12T23:49:01.698Z,102573.83
2018-12-12T23:51:27.438Z,102565.57
2018-12-12T23:53:53.330Z,102573.77
2018-12-12T23:56:19.062Z,102567.90
2018-12-12T23:58:44.762Z,102564.20
